Archival Weather

Snohomish County (Paine Fld)

Everett, Washington (KPAE)

Report from: Monday, October 23, 2023 6:53 PM PDT
Current time: Sunday, June 16, 2024 11:45 PM PDT

Current weather – Weather history – Daily summaries
Weather forecast

Temperature10.0°C (50.0°F)
Wind chill8.5°C (47.2°F)
Dew point4.4°C (39.9°F)
Winds 6 kts (3.1 m/s, 6.9 mph) North (350°)
Visibility10 mi. (16.1 km)
Clouds Ceiling: Overcast 3,500 ft. (1,067 m)
Altimeter30.03 in.Hg (1017 mB)
Relative humidity68 %
Density altitude-605 ft. (-184 m)
Sea-level pressure101.7 kPa (1017 mB, 30.04 in.Hg)
Remarks Automated weather observing station with precipitation discriminator
Flight conditions Visual Meteorological Conditions
Raw dataKPAE 240153Z 35006KT 10SM OVC035 10/04 A3003 RMK AO2 SLP171 T01000044
An error has occurred. This application may no longer respond until reloaded. Reload 🗙